sensor_id;sensor_type;location;lat;lon;timestamp;P1;durP1;ratioP1;P2;durP2;ratioP2
27187;SDS011;14708;50.872;5.306;2023-04-25T00:01:00;4.63;;;2.28;;
27187;SDS011;14708;50.872;5.306;2023-04-25T00:03:45;3.00;;;2.20;;
27187;SDS011;14708;50.872;5.306;2023-04-25T00:06:11;2.58;;;2.13;;
27187;SDS011;14708;50.872;5.306;2023-04-25T00:08:37;3.90;;;2.42;;
27187;SDS011;14708;50.872;5.306;2023-04-25T00:11:03;4.07;;;2.38;;
27187;SDS011;14708;50.872;5.306;2023-04-25T00:13:29;2.85;;;2.00;;
27187;SDS011;14708;50.872;5.306;2023-04-25T00:15:54;3.10;;;1.90;;
27187;SDS011;14708;50.872;5.306;2023-04-25T00:18:21;2.90;;;2.10;;
27187;SDS011;14708;50.872;5.306;2023-04-25T00:20:47;3.25;;;2.40;;
27187;SDS011;14708;50.872;5.306;2023-04-25T00:23:14;2.20;;;1.98;;
27187;SDS011;14708;50.872;5.306;2023-04-25T00:25:43;4.82;;;2.45;;
27187;SDS011;14708;50.872;5.306;2023-04-25T00:28:10;2.90;;;2.00;;
27187;SDS011;14708;50.872;5.306;2023-04-25T00:30:36;3.13;;;2.15;;
27187;SDS011;14708;50.872;5.306;2023-04-25T00:33:02;3.45;;;2.03;;
27187;SDS011;14708;50.872;5.306;2023-04-25T00:35:28;4.10;;;2.30;;
27187;SDS011;14708;50.872;5.306;2023-04-25T00:37:54;3.40;;;2.30;;
27187;SDS011;14708;50.872;5.306;2023-04-25T00:40:20;3.28;;;2.03;;
27187;SDS011;14708;50.872;5.306;2023-04-25T00:42:46;3.25;;;1.92;;
27187;SDS011;14708;50.872;5.306;2023-04-25T00:45:13;2.85;;;2.40;;
27187;SDS011;14708;50.872;5.306;2023-04-25T00:47:40;2.72;;;2.08;;
27187;SDS011;14708;50.872;5.306;2023-04-25T00:50:06;4.00;;;2.35;;
27187;SDS011;14708;50.872;5.306;2023-04-25T00:52:48;2.65;;;1.88;;
27187;SDS011;14708;50.872;5.306;2023-04-25T00:55:14;3.10;;;2.35;;
27187;SDS011;14708;50.872;5.306;2023-04-25T00:57:40;3.22;;;2.33;;
27187;SDS011;14708;50.872;5.306;2023-04-25T01:00:07;2.28;;;1.95;;
27187;SDS011;14708;50.872;5.306;2023-04-25T01:02:39;2.80;;;1.90;;
27187;SDS011;14708;50.872;5.306;2023-04-25T01:05:06;2.47;;;2.08;;
27187;SDS011;14708;50.872;5.306;2023-04-25T01:07:33;3.58;;;1.98;;
27187;SDS011;14708;50.872;5.306;2023-04-25T01:10:00;2.47;;;2.05;;
27187;SDS011;14708;50.872;5.306;2023-04-25T01:12:26;3.30;;;2.42;;
27187;SDS011;14708;50.872;5.306;2023-04-25T01:14:52;2.85;;;2.28;;
27187;SDS011;14708;50.872;5.306;2023-04-25T01:17:18;2.63;;;2.13;;
27187;SDS011;14708;50.872;5.306;2023-04-25T01:19:44;3.60;;;2.28;;
27187;SDS011;14708;50.872;5.306;2023-04-25T01:22:14;3.80;;;2.20;;
27187;SDS011;14708;50.872;5.306;2023-04-25T01:24:40;3.35;;;2.30;;
27187;SDS011;14708;50.872;5.306;2023-04-25T01:27:06;2.95;;;2.08;;
27187;SDS011;14708;50.872;5.306;2023-04-25T01:29:33;4.80;;;2.33;;
27187;SDS011;14708;50.872;5.306;2023-04-25T01:32:00;3.20;;;2.40;;
27187;SDS011;14708;50.872;5.306;2023-04-25T01:34:26;2.03;;;1.73;;
27187;SDS011;14708;50.872;5.306;2023-04-25T01:36:52;4.65;;;2.10;;
27187;SDS011;14708;50.872;5.306;2023-04-25T01:39:19;2.67;;;1.85;;
27187;SDS011;14708;50.872;5.306;2023-04-25T01:41:45;3.75;;;2.08;;
27187;SDS011;14708;50.872;5.306;2023-04-25T01:44:12;5.43;;;2.20;;
27187;SDS011;14708;50.872;5.306;2023-04-25T01:46:38;2.97;;;1.98;;
27187;SDS011;14708;50.872;5.306;2023-04-25T01:49:04;3.25;;;2.03;;
27187;SDS011;14708;50.872;5.306;2023-04-25T01:51:30;2.90;;;2.47;;
27187;SDS011;14708;50.872;5.306;2023-04-25T01:53:56;2.45;;;1.95;;
27187;SDS011;14708;50.872;5.306;2023-04-25T01:56:25;2.58;;;2.00;;
27187;SDS011;14708;50.872;5.306;2023-04-25T01:58:55;2.45;;;1.88;;
27187;SDS011;14708;50.872;5.306;2023-04-25T02:01:22;3.00;;;1.75;;
27187;SDS011;14708;50.872;5.306;2023-04-25T02:03:47;3.00;;;2.05;;
27187;SDS011;14708;50.872;5.306;2023-04-25T02:06:13;2.63;;;1.92;;
27187;SDS011;14708;50.872;5.306;2023-04-25T02:08:39;2.20;;;1.88;;
27187;SDS011;14708;50.872;5.306;2023-04-25T02:11:04;2.33;;;1.60;;
27187;SDS011;14708;50.872;5.306;2023-04-25T02:13:30;2.10;;;1.80;;
27187;SDS011;14708;50.872;5.306;2023-04-25T02:15:56;2.80;;;1.88;;
27187;SDS011;14708;50.872;5.306;2023-04-25T02:18:22;2.38;;;1.70;;
27187;SDS011;14708;50.872;5.306;2023-04-25T02:20:48;2.22;;;1.80;;
27187;SDS011;14708;50.872;5.306;2023-04-25T02:23:13;2.92;;;2.08;;
27187;SDS011;14708;50.872;5.306;2023-04-25T02:25:40;2.85;;;1.85;;
27187;SDS011;14708;50.872;5.306;2023-04-25T02:28:06;2.85;;;2.10;;
27187;SDS011;14708;50.872;5.306;2023-04-25T02:30:32;2.92;;;2.20;;
27187;SDS011;14708;50.872;5.306;2023-04-25T02:32:57;2.70;;;1.95;;
27187;SDS011;14708;50.872;5.306;2023-04-25T02:35:24;3.65;;;2.20;;
27187;SDS011;14708;50.872;5.306;2023-04-25T02:37:50;2.15;;;1.60;;
27187;SDS011;14708;50.872;5.306;2023-04-25T02:40:15;1.95;;;1.73;;
27187;SDS011;14708;50.872;5.306;2023-04-25T02:42:41;3.20;;;1.60;;
27187;SDS011;14708;50.872;5.306;2023-04-25T02:45:07;3.03;;;2.03;;
27187;SDS011;14708;50.872;5.306;2023-04-25T02:47:33;3.25;;;2.28;;
27187;SDS011;14708;50.872;5.306;2023-04-25T02:49:59;4.32;;;2.08;;
27187;SDS011;14708;50.872;5.306;2023-04-25T02:52:24;2.85;;;2.03;;
27187;SDS011;14708;50.872;5.306;2023-04-25T02:54:50;3.10;;;2.40;;
27187;SDS011;14708;50.872;5.306;2023-04-25T02:57:16;2.00;;;1.80;;
27187;SDS011;14708;50.872;5.306;2023-04-25T02:59:42;3.13;;;2.10;;
27187;SDS011;14708;50.872;5.306;2023-04-25T03:02:07;2.65;;;1.85;;
27187;SDS011;14708;50.872;5.306;2023-04-25T03:04:33;2.75;;;2.20;;
27187;SDS011;14708;50.872;5.306;2023-04-25T03:06:58;3.03;;;1.65;;
27187;SDS011;14708;50.872;5.306;2023-04-25T03:09:24;3.72;;;2.20;;
27187;SDS011;14708;50.872;5.306;2023-04-25T03:11:50;5.00;;;2.30;;
27187;SDS011;14708;50.872;5.306;2023-04-25T03:14:16;1.60;;;1.50;;
27187;SDS011;14708;50.872;5.306;2023-04-25T03:16:42;2.17;;;1.88;;
27187;SDS011;14708;50.872;5.306;2023-04-25T03:19:07;2.08;;;1.70;;
27187;SDS011;14708;50.872;5.306;2023-04-25T03:21:33;2.58;;;2.17;;
27187;SDS011;14708;50.872;5.306;2023-04-25T03:24:15;4.10;;;2.03;;
27187;SDS011;14708;50.872;5.306;2023-04-25T03:26:41;2.20;;;1.90;;
27187;SDS011;14708;50.872;5.306;2023-04-25T03:29:07;3.03;;;2.13;;
27187;SDS011;14708;50.872;5.306;2023-04-25T03:31:32;2.72;;;1.92;;
27187;SDS011;14708;50.872;5.306;2023-04-25T03:33:58;2.65;;;1.85;;
27187;SDS011;14708;50.872;5.306;2023-04-25T03:36:24;2.70;;;1.75;;
27187;SDS011;14708;50.872;5.306;2023-04-25T03:38:49;2.72;;;1.98;;
27187;SDS011;14708;50.872;5.306;2023-04-25T03:41:15;2.90;;;2.10;;
27187;SDS011;14708;50.872;5.306;2023-04-25T03:43:41;2.20;;;2.00;;
27187;SDS011;14708;50.872;5.306;2023-04-25T03:46:07;2.88;;;1.90;;
27187;SDS011;14708;50.872;5.306;2023-04-25T03:48:32;2.22;;;1.77;;
27187;SDS011;14708;50.872;5.306;2023-04-25T03:50:58;1.70;;;1.60;;
27187;SDS011;14708;50.872;5.306;2023-04-25T03:53:24;2.15;;;1.67;;
27187;SDS011;14708;50.872;5.306;2023-04-25T03:55:50;2.65;;;1.80;;
27187;SDS011;14708;50.872;5.306;2023-04-25T03:58:16;2.17;;;1.77;;
27187;SDS011;14708;50.872;5.306;2023-04-25T04:00:42;3.63;;;2.10;;
27187;SDS011;14708;50.872;5.306;2023-04-25T04:03:08;2.67;;;1.83;;
27187;SDS011;14708;50.872;5.306;2023-04-25T04:05:33;2.08;;;1.85;;
27187;SDS011;14708;50.872;5.306;2023-04-25T04:07:59;2.65;;;1.98;;
27187;SDS011;14708;50.872;5.306;2023-04-25T04:10:25;3.08;;;1.67;;
27187;SDS011;14708;50.872;5.306;2023-04-25T04:12:51;2.15;;;1.50;;
27187;SDS011;14708;50.872;5.306;2023-04-25T04:15:16;3.45;;;2.15;;
27187;SDS011;14708;50.872;5.306;2023-04-25T04:17:42;3.00;;;2.30;;
27187;SDS011;14708;50.872;5.306;2023-04-25T04:20:08;1.85;;;1.70;;
27187;SDS011;14708;50.872;5.306;2023-04-25T04:22:34;2.25;;;1.88;;
27187;SDS011;14708;50.872;5.306;2023-04-25T04:25:00;2.22;;;1.60;;
27187;SDS011;14708;50.872;5.306;2023-04-25T04:27:26;2.10;;;1.88;;
27187;SDS011;14708;50.872;5.306;2023-04-25T04:33:14;3.00;;;1.73;;
27187;SDS011;14708;50.872;5.306;2023-04-25T04:35:40;2.00;;;1.75;;
27187;SDS011;14708;50.872;5.306;2023-04-25T04:38:06;2.63;;;1.67;;
27187;SDS011;14708;50.872;5.306;2023-04-25T04:40:32;2.65;;;1.90;;
27187;SDS011;14708;50.872;5.306;2023-04-25T04:42:58;1.90;;;1.52;;
27187;SDS011;14708;50.872;5.306;2023-04-25T04:45:23;2.55;;;1.92;;
27187;SDS011;14708;50.872;5.306;2023-04-25T04:47:52;1.88;;;1.60;;
27187;SDS011;14708;50.872;5.306;2023-04-25T04:50:20;2.20;;;1.75;;
27187;SDS011;14708;50.872;5.306;2023-04-25T04:52:46;1.85;;;1.63;;
27187;SDS011;14708;50.872;5.306;2023-04-25T04:55:12;2.60;;;1.77;;
27187;SDS011;14708;50.872;5.306;2023-04-25T04:57:38;2.42;;;1.90;;
27187;SDS011;14708;50.872;5.306;2023-04-25T05:00:05;2.05;;;1.85;;
27187;SDS011;14708;50.872;5.306;2023-04-25T05:02:35;2.30;;;1.73;;
27187;SDS011;14708;50.872;5.306;2023-04-25T05:05:02;2.25;;;1.83;;
27187;SDS011;14708;50.872;5.306;2023-04-25T05:07:28;2.42;;;1.90;;
27187;SDS011;14708;50.872;5.306;2023-04-25T05:09:53;1.95;;;1.75;;
27187;SDS011;14708;50.872;5.306;2023-04-25T05:15:48;2.63;;;1.83;;
27187;SDS011;14708;50.872;5.306;2023-04-25T05:18:13;2.40;;;1.88;;
27187;SDS011;14708;50.872;5.306;2023-04-25T05:20:39;2.13;;;1.83;;
27187;SDS011;14708;50.872;5.306;2023-04-25T05:23:05;2.08;;;1.67;;
27187;SDS011;14708;50.872;5.306;2023-04-25T05:25:31;2.17;;;1.70;;
27187;SDS011;14708;50.872;5.306;2023-04-25T05:27:57;1.98;;;1.80;;
27187;SDS011;14708;50.872;5.306;2023-04-25T05:30:23;2.22;;;1.90;;
27187;SDS011;14708;50.872;5.306;2023-04-25T05:32:49;1.98;;;1.70;;
27187;SDS011;14708;50.872;5.306;2023-04-25T05:35:15;3.45;;;1.95;;
27187;SDS011;14708;50.872;5.306;2023-04-25T05:37:41;2.28;;;1.63;;
27187;SDS011;14708;50.872;5.306;2023-04-25T05:40:08;2.67;;;1.85;;
27187;SDS011;14708;50.872;5.306;2023-04-25T05:42:34;2.45;;;1.80;;
27187;SDS011;14708;50.872;5.306;2023-04-25T05:44:59;2.38;;;1.98;;
27187;SDS011;14708;50.872;5.306;2023-04-25T05:47:25;2.45;;;1.85;;
27187;SDS011;14708;50.872;5.306;2023-04-25T05:49:52;2.53;;;1.73;;
27187;SDS011;14708;50.872;5.306;2023-04-25T05:52:17;3.38;;;1.65;;
27187;SDS011;14708;50.872;5.306;2023-04-25T05:54:43;2.92;;;1.77;;
27187;SDS011;14708;50.872;5.306;2023-04-25T05:57:17;1.92;;;1.60;;
27187;SDS011;14708;50.872;5.306;2023-04-25T05:59:54;3.05;;;1.63;;
27187;SDS011;14708;50.872;5.306;2023-04-25T06:02:20;3.03;;;1.83;;
27187;SDS011;14708;50.872;5.306;2023-04-25T06:04:51;3.28;;;1.85;;
27187;SDS011;14708;50.872;5.306;2023-04-25T06:07:22;2.30;;;1.85;;
27187;SDS011;14708;50.872;5.306;2023-04-25T06:09:48;2.28;;;1.52;;
27187;SDS011;14708;50.872;5.306;2023-04-25T06:12:19;4.75;;;1.63;;
27187;SDS011;14708;50.872;5.306;2023-04-25T06:14:45;2.45;;;1.77;;
27187;SDS011;14708;50.872;5.306;2023-04-25T06:17:10;2.97;;;1.63;;
27187;SDS011;14708;50.872;5.306;2023-04-25T06:19:36;1.80;;;1.70;;
27187;SDS011;14708;50.872;5.306;2023-04-25T06:22:05;2.45;;;1.70;;
27187;SDS011;14708;50.872;5.306;2023-04-25T06:24:32;2.45;;;1.90;;
27187;SDS011;14708;50.872;5.306;2023-04-25T06:27:01;2.85;;;1.42;;
27187;SDS011;14708;50.872;5.306;2023-04-25T06:29:27;3.17;;;1.65;;
27187;SDS011;14708;50.872;5.306;2023-04-25T06:31:53;2.60;;;1.60;;
27187;SDS011;14708;50.872;5.306;2023-04-25T06:34:22;5.47;;;1.58;;
27187;SDS011;14708;50.872;5.306;2023-04-25T06:36:47;4.90;;;1.43;;
27187;SDS011;14708;50.872;5.306;2023-04-25T06:39:13;2.05;;;1.60;;
27187;SDS011;14708;50.872;5.306;2023-04-25T06:41:54;2.75;;;1.88;;
27187;SDS011;14708;50.872;5.306;2023-04-25T06:44:20;1.98;;;1.52;;
27187;SDS011;14708;50.872;5.306;2023-04-25T06:46:48;4.65;;;2.05;;
27187;SDS011;14708;50.872;5.306;2023-04-25T06:49:13;2.72;;;1.50;;
27187;SDS011;14708;50.872;5.306;2023-04-25T06:51:40;3.20;;;1.95;;
27187;SDS011;14708;50.872;5.306;2023-04-25T06:54:06;2.70;;;2.03;;
27187;SDS011;14708;50.872;5.306;2023-04-25T06:56:32;2.28;;;1.48;;
27187;SDS011;14708;50.872;5.306;2023-04-25T06:59:00;1.95;;;1.58;;
27187;SDS011;14708;50.872;5.306;2023-04-25T07:01:28;3.25;;;1.70;;
27187;SDS011;14708;50.872;5.306;2023-04-25T07:04:00;1.83;;;1.60;;
27187;SDS011;14708;50.872;5.306;2023-04-25T07:06:43;5.07;;;2.10;;
27187;SDS011;14708;50.872;5.306;2023-04-25T07:09:13;1.63;;;1.52;;
27187;SDS011;14708;50.872;5.306;2023-04-25T07:11:46;3.60;;;2.05;;
27187;SDS011;14708;50.872;5.306;2023-04-25T07:14:12;15.90;;;4.15;;
27187;SDS011;14708;50.872;5.306;2023-04-25T07:16:37;23.08;;;4.78;;
27187;SDS011;14708;50.872;5.306;2023-04-25T07:19:03;17.13;;;3.92;;
27187;SDS011;14708;50.872;5.306;2023-04-25T07:21:29;24.55;;;5.80;;
27187;SDS011;14708;50.872;5.306;2023-04-25T07:23:56;12.98;;;3.67;;
27187;SDS011;14708;50.872;5.306;2023-04-25T07:26:22;12.50;;;4.28;;
27187;SDS011;14708;50.872;5.306;2023-04-25T07:28:48;14.80;;;3.70;;
27187;SDS011;14708;50.872;5.306;2023-04-25T07:31:15;15.88;;;4.40;;
27187;SDS011;14708;50.872;5.306;2023-04-25T07:33:43;14.85;;;4.55;;
27187;SDS011;14708;50.872;5.306;2023-04-25T07:36:13;10.57;;;3.85;;
27187;SDS011;14708;50.872;5.306;2023-04-25T07:41:05;12.93;;;4.30;;
27187;SDS011;14708;50.872;5.306;2023-04-25T07:43:31;10.75;;;4.07;;
27187;SDS011;14708;50.872;5.306;2023-04-25T07:45:57;12.40;;;3.78;;
27187;SDS011;14708;50.872;5.306;2023-04-25T07:48:23;10.45;;;3.97;;
27187;SDS011;14708;50.872;5.306;2023-04-25T07:50:51;13.90;;;4.25;;
27187;SDS011;14708;50.872;5.306;2023-04-25T07:53:17;11.63;;;3.95;;
27187;SDS011;14708;50.872;5.306;2023-04-25T07:55:43;12.80;;;4.03;;
27187;SDS011;14708;50.872;5.306;2023-04-25T07:58:10;10.05;;;4.32;;
27187;SDS011;14708;50.872;5.306;2023-04-25T08:00:36;12.52;;;4.03;;
27187;SDS011;14708;50.872;5.306;2023-04-25T08:03:02;9.73;;;3.90;;
27187;SDS011;14708;50.872;5.306;2023-04-25T08:05:28;11.43;;;4.25;;
27187;SDS011;14708;50.872;5.306;2023-04-25T08:07:54;13.73;;;4.10;;
27187;SDS011;14708;50.872;5.306;2023-04-25T08:10:21;13.32;;;4.00;;
27187;SDS011;14708;50.872;5.306;2023-04-25T08:12:48;13.40;;;3.85;;
27187;SDS011;14708;50.872;5.306;2023-04-25T08:15:26;11.88;;;4.38;;
27187;SDS011;14708;50.872;5.306;2023-04-25T08:17:52;10.57;;;4.22;;
27187;SDS011;14708;50.872;5.306;2023-04-25T08:20:18;11.07;;;4.15;;
27187;SDS011;14708;50.872;5.306;2023-04-25T08:22:43;10.88;;;3.90;;
27187;SDS011;14708;50.872;5.306;2023-04-25T08:25:13;10.90;;;4.78;;
27187;SDS011;14708;50.872;5.306;2023-04-25T08:27:39;9.88;;;4.40;;
27187;SDS011;14708;50.872;5.306;2023-04-25T08:30:06;10.82;;;4.38;;
27187;SDS011;14708;50.872;5.306;2023-04-25T08:32:33;9.30;;;4.03;;
27187;SDS011;14708;50.872;5.306;2023-04-25T08:34:59;7.82;;;3.45;;
27187;SDS011;14708;50.872;5.306;2023-04-25T08:37:25;10.55;;;4.05;;
27187;SDS011;14708;50.872;5.306;2023-04-25T08:39:51;10.40;;;3.90;;
27187;SDS011;14708;50.872;5.306;2023-04-25T08:42:18;13.40;;;4.15;;
27187;SDS011;14708;50.872;5.306;2023-04-25T08:44:49;13.70;;;4.05;;
27187;SDS011;14708;50.872;5.306;2023-04-25T08:47:15;7.28;;;3.72;;
27187;SDS011;14708;50.872;5.306;2023-04-25T08:49:45;12.60;;;4.22;;
27187;SDS011;14708;50.872;5.306;2023-04-25T08:52:12;11.40;;;4.10;;
27187;SDS011;14708;50.872;5.306;2023-04-25T08:54:44;11.75;;;4.18;;
27187;SDS011;14708;50.872;5.306;2023-04-25T08:57:13;7.85;;;3.47;;
27187;SDS011;14708;50.872;5.306;2023-04-25T08:59:40;11.50;;;3.97;;
27187;SDS011;14708;50.872;5.306;2023-04-25T09:02:10;9.65;;;3.85;;
27187;SDS011;14708;50.872;5.306;2023-04-25T09:04:39;10.07;;;4.25;;
27187;SDS011;14708;50.872;5.306;2023-04-25T09:07:06;9.88;;;4.20;;
27187;SDS011;14708;50.872;5.306;2023-04-25T09:09:32;11.77;;;4.53;;
27187;SDS011;14708;50.872;5.306;2023-04-25T09:11:57;13.18;;;4.22;;
27187;SDS011;14708;50.872;5.306;2023-04-25T09:14:24;9.48;;;4.03;;
27187;SDS011;14708;50.872;5.306;2023-04-25T09:19:34;9.07;;;4.32;;
27187;SDS011;14708;50.872;5.306;2023-04-25T09:22:03;11.02;;;4.28;;
27187;SDS011;14708;50.872;5.306;2023-04-25T09:27:11;13.57;;;4.22;;
27187;SDS011;14708;50.872;5.306;2023-04-25T09:29:42;10.05;;;3.70;;
27187;SDS011;14708;50.872;5.306;2023-04-25T09:34:45;11.55;;;3.80;;
27187;SDS011;14708;50.872;5.306;2023-04-25T09:37:19;9.68;;;3.80;;
27187;SDS011;14708;50.872;5.306;2023-04-25T09:40:04;12.00;;;4.05;;
27187;SDS011;14708;50.872;5.306;2023-04-25T09:42:32;7.25;;;3.65;;
27187;SDS011;14708;50.872;5.306;2023-04-25T09:45:00;12.07;;;4.15;;
27187;SDS011;14708;50.872;5.306;2023-04-25T09:47:27;11.18;;;3.75;;
27187;SDS011;14708;50.872;5.306;2023-04-25T09:49:53;11.40;;;3.58;;
27187;SDS011;14708;50.872;5.306;2023-04-25T09:52:23;9.90;;;3.42;;
27187;SDS011;14708;50.872;5.306;2023-04-25T09:54:50;13.68;;;4.13;;
27187;SDS011;14708;50.872;5.306;2023-04-25T09:59:44;11.88;;;3.85;;
27187;SDS011;14708;50.872;5.306;2023-04-25T10:02:18;12.27;;;4.55;;
27187;SDS011;14708;50.872;5.306;2023-04-25T10:07:13;14.98;;;4.18;;
27187;SDS011;14708;50.872;5.306;2023-04-25T10:09:40;10.05;;;3.88;;
27187;SDS011;14708;50.872;5.306;2023-04-25T10:12:07;10.77;;;3.83;;
27187;SDS011;14708;50.872;5.306;2023-04-25T10:14:33;8.93;;;3.53;;
27187;SDS011;14708;50.872;5.306;2023-04-25T10:17:02;9.53;;;4.13;;
27187;SDS011;14708;50.872;5.306;2023-04-25T10:19:27;12.13;;;4.13;;
27187;SDS011;14708;50.872;5.306;2023-04-25T10:22:06;11.80;;;3.80;;
27187;SDS011;14708;50.872;5.306;2023-04-25T10:24:35;8.82;;;3.83;;
27187;SDS011;14708;50.872;5.306;2023-04-25T10:27:02;10.02;;;3.38;;
27187;SDS011;14708;50.872;5.306;2023-04-25T10:29:27;11.73;;;4.65;;
27187;SDS011;14708;50.872;5.306;2023-04-25T10:31:53;10.27;;;3.22;;
27187;SDS011;14708;50.872;5.306;2023-04-25T10:37:14;9.80;;;3.70;;
27187;SDS011;14708;50.872;5.306;2023-04-25T10:39:40;11.55;;;3.95;;
27187;SDS011;14708;50.872;5.306;2023-04-25T10:42:06;11.60;;;3.40;;
27187;SDS011;14708;50.872;5.306;2023-04-25T10:44:33;8.05;;;3.42;;
27187;SDS011;14708;50.872;5.306;2023-04-25T10:47:00;12.70;;;3.50;;
27187;SDS011;14708;50.872;5.306;2023-04-25T10:49:30;9.02;;;3.67;;
27187;SDS011;14708;50.872;5.306;2023-04-25T10:57:42;7.93;;;4.00;;
27187;SDS011;14708;50.872;5.306;2023-04-25T11:00:14;11.63;;;4.07;;
27187;SDS011;14708;50.872;5.306;2023-04-25T11:02:48;8.70;;;3.33;;
27187;SDS011;14708;50.872;5.306;2023-04-25T11:08:12;10.13;;;3.67;;
27187;SDS011;14708;50.872;5.306;2023-04-25T11:10:42;8.73;;;3.15;;
27187;SDS011;14708;50.872;5.306;2023-04-25T11:13:09;9.95;;;3.15;;
27187;SDS011;14708;50.872;5.306;2023-04-25T11:15:35;7.30;;;3.20;;
27187;SDS011;14708;50.872;5.306;2023-04-25T11:18:00;8.40;;;3.47;;
27187;SDS011;14708;50.872;5.306;2023-04-25T11:20:28;6.97;;;3.15;;
27187;SDS011;14708;50.872;5.306;2023-04-25T11:23:12;9.20;;;3.38;;
27187;SDS011;14708;50.872;5.306;2023-04-25T11:25:38;9.68;;;3.72;;
27187;SDS011;14708;50.872;5.306;2023-04-25T11:28:04;7.85;;;3.60;;
27187;SDS011;14708;50.872;5.306;2023-04-25T11:30:29;9.23;;;3.60;;
27187;SDS011;14708;50.872;5.306;2023-04-25T11:32:55;7.90;;;3.45;;
27187;SDS011;14708;50.872;5.306;2023-04-25T11:38:52;6.40;;;3.30;;
27187;SDS011;14708;50.872;5.306;2023-04-25T11:41:19;7.22;;;3.65;;
27187;SDS011;14708;50.872;5.306;2023-04-25T11:43:47;7.15;;;3.15;;
27187;SDS011;14708;50.872;5.306;2023-04-25T11:46:13;10.20;;;3.63;;
27187;SDS011;14708;50.872;5.306;2023-04-25T11:48:40;6.38;;;2.92;;
27187;SDS011;14708;50.872;5.306;2023-04-25T11:51:06;10.57;;;3.53;;
27187;SDS011;14708;50.872;5.306;2023-04-25T11:53:32;7.70;;;3.58;;
27187;SDS011;14708;50.872;5.306;2023-04-25T11:55:58;7.97;;;3.22;;
27187;SDS011;14708;50.872;5.306;2023-04-25T11:59:00;8.85;;;4.05;;
27187;SDS011;14708;50.872;5.306;2023-04-25T12:01:32;7.78;;;3.00;;
27187;SDS011;14708;50.872;5.306;2023-04-25T12:04:21;5.60;;;2.85;;
27187;SDS011;14708;50.872;5.306;2023-04-25T12:07:03;6.45;;;2.40;;
27187;SDS011;14708;50.872;5.306;2023-04-25T12:09:32;7.75;;;2.78;;
27187;SDS011;14708;50.872;5.306;2023-04-25T12:11:59;7.32;;;2.97;;
27187;SDS011;14708;50.872;5.306;2023-04-25T12:14:30;7.13;;;2.80;;
27187;SDS011;14708;50.872;5.306;2023-04-25T12:16:58;8.40;;;3.10;;
27187;SDS011;14708;50.872;5.306;2023-04-25T12:19:25;10.43;;;3.42;;
27187;SDS011;14708;50.872;5.306;2023-04-25T12:21:56;6.20;;;3.05;;
27187;SDS011;14708;50.872;5.306;2023-04-25T12:24:23;8.10;;;3.33;;
27187;SDS011;14708;50.872;5.306;2023-04-25T12:27:06;7.45;;;3.58;;
27187;SDS011;14708;50.872;5.306;2023-04-25T12:29:33;8.45;;;3.22;;
27187;SDS011;14708;50.872;5.306;2023-04-25T12:31:59;6.22;;;2.42;;
27187;SDS011;14708;50.872;5.306;2023-04-25T12:34:29;6.25;;;2.80;;
27187;SDS011;14708;50.872;5.306;2023-04-25T12:36:57;8.35;;;3.10;;
27187;SDS011;14708;50.872;5.306;2023-04-25T12:39:23;6.75;;;2.90;;
27187;SDS011;14708;50.872;5.306;2023-04-25T12:41:50;7.10;;;3.40;;
27187;SDS011;14708;50.872;5.306;2023-04-25T12:44:19;8.77;;;2.88;;
27187;SDS011;14708;50.872;5.306;2023-04-25T12:46:45;8.27;;;3.78;;
27187;SDS011;14708;50.872;5.306;2023-04-25T12:49:12;6.72;;;3.00;;
27187;SDS011;14708;50.872;5.306;2023-04-25T12:51:44;5.00;;;2.33;;
27187;SDS011;14708;50.872;5.306;2023-04-25T12:54:09;8.90;;;2.95;;
27187;SDS011;14708;50.872;5.306;2023-04-25T12:56:35;8.82;;;3.50;;
27187;SDS011;14708;50.872;5.306;2023-04-25T12:59:02;6.07;;;2.63;;
27187;SDS011;14708;50.872;5.306;2023-04-25T13:01:48;8.70;;;3.17;;
27187;SDS011;14708;50.872;5.306;2023-04-25T13:04:14;5.95;;;3.03;;
27187;SDS011;14708;50.872;5.306;2023-04-25T13:06:59;6.07;;;2.53;;
27187;SDS011;14708;50.872;5.306;2023-04-25T13:09:28;7.50;;;2.87;;
27187;SDS011;14708;50.872;5.306;2023-04-25T13:11:54;8.48;;;3.03;;
27187;SDS011;14708;50.872;5.306;2023-04-25T13:14:20;8.65;;;3.15;;
27187;SDS011;14708;50.872;5.306;2023-04-25T13:16:48;23.70;;;7.85;;
27187;SDS011;14708;50.872;5.306;2023-04-25T13:19:14;21.25;;;4.82;;
27187;SDS011;14708;50.872;5.306;2023-04-25T13:21:40;26.38;;;7.97;;
27187;SDS011;14708;50.872;5.306;2023-04-25T13:24:05;28.48;;;8.85;;
27187;SDS011;14708;50.872;5.306;2023-04-25T13:26:31;34.15;;;8.35;;
27187;SDS011;14708;50.872;5.306;2023-04-25T13:28:57;30.90;;;9.07;;
27187;SDS011;14708;50.872;5.306;2023-04-25T13:31:23;35.78;;;9.15;;
27187;SDS011;14708;50.872;5.306;2023-04-25T13:33:54;34.75;;;8.88;;
27187;SDS011;14708;50.872;5.306;2023-04-25T13:36:20;23.90;;;5.45;;
27187;SDS011;14708;50.872;5.306;2023-04-25T13:38:46;16.83;;;4.53;;
27187;SDS011;14708;50.872;5.306;2023-04-25T13:41:12;19.63;;;5.75;;
27187;SDS011;14708;50.872;5.306;2023-04-25T13:43:42;11.90;;;4.20;;
27187;SDS011;14708;50.872;5.306;2023-04-25T13:46:08;13.77;;;4.68;;
27187;SDS011;14708;50.872;5.306;2023-04-25T13:48:34;18.27;;;3.83;;
27187;SDS011;14708;50.872;5.306;2023-04-25T13:51:00;11.23;;;4.30;;
27187;SDS011;14708;50.872;5.306;2023-04-25T13:53:26;13.15;;;4.47;;
27187;SDS011;14708;50.872;5.306;2023-04-25T13:55:52;19.55;;;5.18;;
27187;SDS011;14708;50.872;5.306;2023-04-25T13:58:17;14.75;;;4.72;;
27187;SDS011;14708;50.872;5.306;2023-04-25T14:00:45;11.98;;;4.00;;
27187;SDS011;14708;50.872;5.306;2023-04-25T14:03:11;6.43;;;2.47;;
27187;SDS011;14708;50.872;5.306;2023-04-25T14:05:37;8.35;;;3.17;;
27187;SDS011;14708;50.872;5.306;2023-04-25T14:08:04;15.98;;;4.47;;
27187;SDS011;14708;50.872;5.306;2023-04-25T14:10:32;11.75;;;3.72;;
27187;SDS011;14708;50.872;5.306;2023-04-25T14:15:42;21.58;;;5.60;;
27187;SDS011;14708;50.872;5.306;2023-04-25T14:18:08;18.65;;;5.97;;
27187;SDS011;14708;50.872;5.306;2023-04-25T14:20:33;16.38;;;5.75;;
27187;SDS011;14708;50.872;5.306;2023-04-25T14:22:59;17.95;;;5.85;;
27187;SDS011;14708;50.872;5.306;2023-04-25T14:25:25;25.35;;;5.75;;
27187;SDS011;14708;50.872;5.306;2023-04-25T14:27:51;15.98;;;6.07;;
27187;SDS011;14708;50.872;5.306;2023-04-25T14:30:17;17.88;;;5.72;;
27187;SDS011;14708;50.872;5.306;2023-04-25T14:32:44;19.88;;;6.68;;
27187;SDS011;14708;50.872;5.306;2023-04-25T14:35:11;20.33;;;6.90;;
27187;SDS011;14708;50.872;5.306;2023-04-25T14:37:36;20.33;;;6.40;;
27187;SDS011;14708;50.872;5.306;2023-04-25T14:40:02;20.63;;;6.75;;
27187;SDS011;14708;50.872;5.306;2023-04-25T14:42:29;18.38;;;5.95;;
27187;SDS011;14708;50.872;5.306;2023-04-25T14:44:56;18.85;;;5.90;;
27187;SDS011;14708;50.872;5.306;2023-04-25T14:47:22;28.70;;;6.43;;
27187;SDS011;14708;50.872;5.306;2023-04-25T14:49:48;22.25;;;6.65;;
27187;SDS011;14708;50.872;5.306;2023-04-25T14:52:19;22.50;;;6.20;;
27187;SDS011;14708;50.872;5.306;2023-04-25T14:54:46;16.63;;;6.47;;
27187;SDS011;14708;50.872;5.306;2023-04-25T14:57:18;16.80;;;5.90;;
27187;SDS011;14708;50.872;5.306;2023-04-25T14:59:44;22.48;;;6.68;;
27187;SDS011;14708;50.872;5.306;2023-04-25T15:02:10;15.00;;;5.65;;
27187;SDS011;14708;50.872;5.306;2023-04-25T15:04:36;20.70;;;5.85;;
27187;SDS011;14708;50.872;5.306;2023-04-25T15:07:05;17.27;;;6.38;;
27187;SDS011;14708;50.872;5.306;2023-04-25T15:09:30;18.70;;;6.30;;
27187;SDS011;14708;50.872;5.306;2023-04-25T15:11:56;20.45;;;6.15;;
27187;SDS011;14708;50.872;5.306;2023-04-25T15:14:23;19.15;;;6.10;;
27187;SDS011;14708;50.872;5.306;2023-04-25T15:16:48;21.10;;;6.55;;
27187;SDS011;14708;50.872;5.306;2023-04-25T15:19:15;18.83;;;5.97;;
27187;SDS011;14708;50.872;5.306;2023-04-25T15:21:41;20.13;;;5.88;;
27187;SDS011;14708;50.872;5.306;2023-04-25T15:24:06;18.75;;;6.15;;